< < Back
Terminal Aerodrome Forecast


Current Version              Previous Versions:   1  2  3  4  5  6  7  8  9  

Terminal Aerodrome Forecast

969
FTUS42 KILM 211100
TAFFLO
TAF
KFLO 211120Z 2112/2212 28007KT P6SM SKC
     FM220300 34010KT P6SM SCT060=

Latest METAR

914
SAUS70 KWBC 211600 RRF
MTRFLO
METAR KFLO 211553Z 28007KT 10SM CLR 23/11 A2994 RMK AO2 SLP135
T02280106


USA.gov is the U.S. government's official web portal to all federal, state and local government web resources and services.